createdAt,value
2022-09-07T00:01:14.005Z,21.00
2022-09-07T00:03:42.295Z,20.90
2022-09-07T00:06:13.438Z,20.90
2022-09-07T00:08:43.702Z,20.90
2022-09-07T00:11:14.070Z,20.80
2022-09-07T00:13:45.607Z,20.70
2022-09-07T00:16:16.979Z,20.70
2022-09-07T00:18:46.547Z,20.60
2022-09-07T00:21:16.847Z,20.40
2022-09-07T00:23:45.688Z,20.30
2022-09-07T00:26:15.989Z,20.30
2022-09-07T00:28:46.473Z,20.30
2022-09-07T00:31:16.885Z,20.20
2022-09-07T00:33:46.079Z,20.10
2022-09-07T00:36:14.368Z,20.00
2022-09-07T00:38:42.628Z,19.90
2022-09-07T00:41:11.118Z,19.80
2022-09-07T00:43:41.222Z,19.80
2022-09-07T00:46:14.722Z,19.70
2022-09-07T00:48:46.986Z,19.60
2022-09-07T00:51:20.167Z,19.50
2022-09-07T00:53:53.778Z,19.50
2022-09-07T00:56:23.839Z,19.40
2022-09-07T00:58:53.548Z,19.30
2022-09-07T01:01:24.168Z,19.30
2022-09-07T01:03:55.017Z,19.20
2022-09-07T01:06:26.322Z,19.20
2022-09-07T01:08:56.498Z,19.10
2022-09-07T01:11:25.121Z,19.10
2022-09-07T01:13:55.082Z,19.10
2022-09-07T01:16:37.530Z,19.10
2022-09-07T01:19:37.163Z,19.00
2022-09-07T01:22:14.028Z,18.90
2022-09-07T01:25:02.752Z,18.80
2022-09-07T01:28:05.842Z,18.80
2022-09-07T01:30:37.887Z,18.70
2022-09-07T01:33:17.911Z,18.70
2022-09-07T01:35:52.781Z,18.70
2022-09-07T01:38:29.737Z,18.60
2022-09-07T01:41:04.560Z,18.60
2022-09-07T01:43:41.431Z,18.60
2022-09-07T01:46:18.123Z,18.60
2022-09-07T01:48:49.402Z,18.70
2022-09-07T01:51:19.775Z,18.70
2022-09-07T01:53:55.090Z,18.70
2022-09-07T01:56:28.517Z,18.70
2022-09-07T01:59:01.671Z,18.70
2022-09-07T02:01:34.643Z,18.80
2022-09-07T02:04:08.321Z,18.80
2022-09-07T02:06:42.443Z,18.80
2022-09-07T02:09:15.646Z,19.00
2022-09-07T02:11:47.819Z,18.90
2022-09-07T02:14:21.212Z,18.80
2022-09-07T02:16:55.909Z,18.80
2022-09-07T02:19:26.297Z,18.70
2022-09-07T02:22:00.633Z,18.70
2022-09-07T02:24:33.926Z,18.70
2022-09-07T02:27:06.275Z,18.60
2022-09-07T02:29:36.032Z,18.50
2022-09-07T02:32:04.815Z,18.50
2022-09-07T02:34:33.431Z,18.50
2022-09-07T02:37:05.696Z,18.50
2022-09-07T02:39:34.912Z,18.50
2022-09-07T02:42:03.271Z,18.50
2022-09-07T02:44:34.778Z,18.50
2022-09-07T02:47:21.640Z,18.50
2022-09-07T02:50:26.795Z,18.70
2022-09-07T02:53:09.995Z,18.70
2022-09-07T02:55:50.314Z,18.60
2022-09-07T02:58:28.407Z,18.70
2022-09-07T03:01:07.173Z,18.80
2022-09-07T03:03:44.740Z,18.80
2022-09-07T03:06:20.316Z,18.80
2022-09-07T03:08:51.572Z,19.30
2022-09-07T03:11:20.372Z,19.40
2022-09-07T03:13:48.633Z,19.60
2022-09-07T03:16:17.363Z,20.20
2022-09-07T03:18:47.009Z,20.40
2022-09-07T03:21:15.202Z,20.80
2022-09-07T03:23:43.386Z,21.00
2022-09-07T03:26:24.231Z,21.00
2022-09-07T03:28:52.548Z,21.20
2022-09-07T03:31:20.901Z,21.30
2022-09-07T03:33:50.584Z,21.10
2022-09-07T03:36:18.819Z,21.20
2022-09-07T03:38:47.294Z,21.30
2022-09-07T03:41:15.503Z,21.50
2022-09-07T03:43:44.537Z,21.50
2022-09-07T03:46:17.723Z,21.50
2022-09-07T03:48:46.852Z,21.60
2022-09-07T03:51:18.617Z,21.70
2022-09-07T03:53:48.099Z,21.70
2022-09-07T03:56:18.319Z,21.70
2022-09-07T03:58:47.792Z,21.80
2022-09-07T04:01:18.124Z,21.80
2022-09-07T04:03:47.018Z,21.80
2022-09-07T04:06:17.165Z,21.80
2022-09-07T04:08:45.753Z,21.90
2022-09-07T04:11:16.618Z,22.00
2022-09-07T04:13:45.353Z,22.10
2022-09-07T04:16:16.406Z,22.00
2022-09-07T04:18:44.752Z,22.00
2022-09-07T04:21:14.011Z,22.00
2022-09-07T04:23:44.434Z,22.00
2022-09-07T04:26:17.536Z,22.00
2022-09-07T04:28:46.601Z,22.00
2022-09-07T04:31:16.443Z,22.00
2022-09-07T04:33:45.329Z,22.00
2022-09-07T04:36:14.184Z,22.00
2022-09-07T04:38:44.104Z,21.90
2022-09-07T04:41:14.774Z,21.90
2022-09-07T04:43:44.130Z,21.90
2022-09-07T04:46:19.423Z,21.80
2022-09-07T04:48:49.520Z,21.80
2022-09-07T04:51:21.608Z,21.70
2022-09-07T04:53:53.562Z,21.70
2022-09-07T04:56:22.824Z,21.70
2022-09-07T04:58:51.739Z,21.60
2022-09-07T05:01:21.419Z,21.50
2022-09-07T05:03:50.396Z,21.50
2022-09-07T05:06:20.149Z,21.40
2022-09-07T05:08:51.342Z,21.20
2022-09-07T05:11:23.799Z,21.10
2022-09-07T05:13:56.297Z,21.00
2022-09-07T05:16:25.985Z,20.90
2022-09-07T05:18:56.114Z,20.90
2022-09-07T05:21:26.102Z,21.00
2022-09-07T05:23:57.244Z,20.90
2022-09-07T05:26:28.023Z,20.90
2022-09-07T05:31:44.734Z,21.10
2022-09-07T05:36:56.674Z,20.90
2022-09-07T05:39:26.931Z,21.00
2022-09-07T05:41:55.315Z,21.00
2022-09-07T05:47:12.966Z,21.00
2022-09-07T05:49:41.520Z,21.00
2022-09-07T05:52:09.755Z,20.90
2022-09-07T05:54:40.202Z,20.80
2022-09-07T05:57:09.114Z,20.80
2022-09-07T05:59:37.372Z,20.70
2022-09-07T06:02:06.438Z,20.70
2022-09-07T06:04:34.883Z,20.70
2022-09-07T06:07:22.107Z,20.70
2022-09-07T06:12:43.444Z,20.80
2022-09-07T06:15:15.326Z,20.80
2022-09-07T06:17:43.601Z,20.90
2022-09-07T06:20:12.196Z,21.00
2022-09-07T06:22:40.671Z,21.10
2022-09-07T06:25:10.878Z,21.10
2022-09-07T06:27:39.232Z,21.30
2022-09-07T06:30:08.576Z,21.40
2022-09-07T06:35:09.082Z,21.50
2022-09-07T06:37:37.379Z,21.60
2022-09-07T06:40:07.457Z,21.70
2022-09-07T06:42:37.387Z,21.80
2022-09-07T06:45:06.641Z,22.00
2022-09-07T06:47:34.944Z,22.10
2022-09-07T06:50:03.162Z,22.20
2022-09-07T06:55:19.681Z,22.30
2022-09-07T06:57:49.412Z,22.30
2022-09-07T07:00:18.163Z,22.40
2022-09-07T07:02:46.327Z,22.40
2022-09-07T07:05:14.604Z,22.50
2022-09-07T07:07:42.826Z,22.60
2022-09-07T07:10:11.340Z,22.70
2022-09-07T07:15:10.063Z,22.80
2022-09-07T07:17:38.338Z,23.00
2022-09-07T07:20:07.633Z,23.10
2022-09-07T07:22:46.642Z,23.20
2022-09-07T07:25:16.525Z,23.20
2022-09-07T07:27:48.423Z,23.30
2022-09-07T07:30:19.531Z,23.50
2022-09-07T07:32:48.383Z,23.50
2022-09-07T07:35:17.002Z,23.30
2022-09-07T07:37:45.188Z,23.20
2022-09-07T07:40:16.872Z,23.00
2022-09-07T07:42:47.420Z,22.90
2022-09-07T07:48:06.668Z,22.80
2022-09-07T07:50:34.997Z,22.80
2022-09-07T07:55:51.794Z,23.10
2022-09-07T07:58:20.054Z,23.30
2022-09-07T08:00:57.330Z,23.40
2022-09-07T08:03:26.450Z,23.60
2022-09-07T08:05:55.010Z,23.70
2022-09-07T08:08:24.414Z,23.70
2022-09-07T08:10:53.356Z,23.70
2022-09-07T08:13:22.330Z,23.80
2022-09-07T08:15:52.030Z,23.90
2022-09-07T08:18:20.247Z,24.00
2022-09-07T08:20:48.565Z,24.10
2022-09-07T08:23:17.243Z,24.20
2022-09-07T08:25:52.271Z,24.30
2022-09-07T08:28:20.926Z,24.30
2022-09-07T08:30:49.444Z,24.40
2022-09-07T08:33:19.131Z,24.50
2022-09-07T08:35:56.893Z,24.60
2022-09-07T08:38:25.235Z,24.70
2022-09-07T08:40:53.958Z,24.80
2022-09-07T08:43:35.628Z,24.90
2022-09-07T08:46:10.189Z,25.00
2022-09-07T08:48:41.107Z,25.10
2022-09-07T08:51:22.353Z,25.00
2022-09-07T08:53:52.887Z,25.00
2022-09-07T08:56:32.965Z,25.00
2022-09-07T08:59:06.327Z,25.00
2022-09-07T09:01:39.583Z,25.20
2022-09-07T09:04:16.475Z,25.00
2022-09-07T09:06:53.661Z,24.70
2022-09-07T09:09:32.651Z,24.90
2022-09-07T09:12:14.105Z,25.10
2022-09-07T09:14:56.703Z,25.20
2022-09-07T09:17:31.802Z,25.20
2022-09-07T09:20:13.999Z,25.20
2022-09-07T09:22:42.345Z,25.10
2022-09-07T09:25:20.570Z,25.00
2022-09-07T09:27:49.232Z,25.30
2022-09-07T09:30:19.068Z,25.20
2022-09-07T09:32:48.898Z,25.00
2022-09-07T09:35:28.169Z,25.20
2022-09-07T09:37:57.655Z,25.30
2022-09-07T09:40:28.410Z,25.50
2022-09-07T09:43:07.899Z,25.80
2022-09-07T09:48:33.680Z,25.80
2022-09-07T09:54:00.685Z,26.10
2022-09-07T09:56:42.945Z,26.20
2022-09-07T10:05:34.989Z,26.20
2022-09-07T10:08:15.187Z,26.30
2022-09-07T10:10:52.771Z,26.10
2022-09-07T10:13:22.881Z,26.10
2022-09-07T10:15:56.358Z,26.20
2022-09-07T10:18:32.444Z,26.30
2022-09-07T10:21:15.446Z,26.30
2022-09-07T10:23:45.040Z,26.20
2022-09-07T10:26:28.531Z,26.30
2022-09-07T10:29:14.911Z,26.20
2022-09-07T10:32:07.477Z,26.00
2022-09-07T10:34:47.311Z,25.90
2022-09-07T10:37:25.925Z,26.20
2022-09-07T10:40:05.236Z,26.20
2022-09-07T10:42:36.849Z,26.00
2022-09-07T10:45:25.779Z,26.00
2022-09-07T10:48:01.716Z,26.00
2022-09-07T10:50:38.978Z,26.10
2022-09-07T10:53:42.261Z,26.20
2022-09-07T10:56:16.972Z,26.40
2022-09-07T10:59:02.978Z,26.40
2022-09-07T11:01:40.219Z,26.40
2022-09-07T11:04:29.342Z,26.30
2022-09-07T11:07:06.895Z,26.40
2022-09-07T11:09:52.983Z,26.40
2022-09-07T11:12:28.263Z,26.30
2022-09-07T11:15:06.479Z,26.10
2022-09-07T11:17:44.266Z,26.00
2022-09-07T11:20:22.747Z,25.90
2022-09-07T11:22:57.953Z,25.90
2022-09-07T11:25:31.144Z,26.10
2022-09-07T11:28:05.250Z,26.20
2022-09-07T11:30:36.131Z,26.50
2022-09-07T11:33:13.592Z,26.80
2022-09-07T11:35:48.902Z,27.10
2022-09-07T11:38:26.800Z,27.40
2022-09-07T11:41:09.068Z,27.50
2022-09-07T11:43:42.979Z,27.40
2022-09-07T11:46:16.186Z,27.60
2022-09-07T11:48:48.630Z,28.10
2022-09-07T11:51:22.377Z,28.20
2022-09-07T11:53:55.181Z,28.10
2022-09-07T11:56:29.778Z,27.90
2022-09-07T11:59:16.221Z,28.30
2022-09-07T12:01:55.324Z,28.40
2022-09-07T12:04:40.329Z,28.30
2022-09-07T12:07:37.128Z,28.50
2022-09-07T12:10:40.801Z,28.90
2022-09-07T12:13:29.136Z,29.30
2022-09-07T12:16:07.286Z,29.60
2022-09-07T12:19:06.238Z,29.90
2022-09-07T12:21:42.676Z,29.60
2022-09-07T12:24:40.574Z,29.00
2022-09-07T12:27:13.045Z,28.90
2022-09-07T12:29:45.198Z,28.50
2022-09-07T12:35:40.159Z,28.50
2022-09-07T12:38:41.570Z,28.40
2022-09-07T12:41:24.446Z,28.40
2022-09-07T12:44:08.340Z,28.40
2022-09-07T12:46:47.007Z,28.60
2022-09-07T12:49:45.179Z,29.00
2022-09-07T12:52:40.706Z,29.20
2022-09-07T12:58:44.176Z,29.50
2022-09-07T13:01:22.859Z,29.80
2022-09-07T13:04:22.958Z,29.90
2022-09-07T13:07:17.751Z,30.10
2022-09-07T13:09:56.657Z,30.20
2022-09-07T13:15:51.165Z,29.50
2022-09-07T13:18:41.670Z,30.10
2022-09-07T13:21:39.197Z,29.40
2022-09-07T13:24:46.575Z,28.90
2022-09-07T13:27:46.803Z,29.20
2022-09-07T13:30:39.406Z,29.30
2022-09-07T13:33:45.565Z,29.20
2022-09-07T13:36:27.010Z,29.20
2022-09-07T13:38:57.449Z,29.30
2022-09-07T13:41:33.049Z,29.30
2022-09-07T13:44:03.873Z,29.30
2022-09-07T13:46:51.313Z,29.40
2022-09-07T13:49:36.409Z,29.30
2022-09-07T13:52:10.609Z,29.30
2022-09-07T13:54:50.698Z,29.10
2022-09-07T13:57:26.974Z,28.90
2022-09-07T13:59:57.325Z,28.90
2022-09-07T14:02:28.792Z,28.80
2022-09-07T14:05:00.402Z,28.60
2022-09-07T14:07:30.392Z,28.60
2022-09-07T14:10:14.208Z,28.70
2022-09-07T14:12:48.926Z,28.80
2022-09-07T14:15:23.543Z,28.80
2022-09-07T14:18:02.957Z,28.70
2022-09-07T14:20:32.574Z,28.50
2022-09-07T14:23:01.333Z,28.60
2022-09-07T14:25:29.755Z,28.60
2022-09-07T14:28:01.121Z,28.50
2022-09-07T14:30:32.020Z,28.40
2022-09-07T14:33:04.743Z,28.30
2022-09-07T14:35:34.872Z,28.30
2022-09-07T14:38:08.079Z,28.40
2022-09-07T14:40:36.888Z,28.30
2022-09-07T14:43:30.790Z,28.20
2022-09-07T14:46:17.845Z,28.10
2022-09-07T14:48:48.136Z,28.00
2022-09-07T14:51:34.823Z,28.20
2022-09-07T14:54:06.687Z,28.30
2022-09-07T14:56:37.241Z,28.40
2022-09-07T14:59:36.713Z,28.50
2022-09-07T15:02:34.080Z,28.60
2022-09-07T15:05:25.454Z,28.80
2022-09-07T15:07:56.111Z,29.10
2022-09-07T15:10:35.258Z,29.30
2022-09-07T15:13:05.548Z,29.60
2022-09-07T15:15:37.431Z,30.00
2022-09-07T15:18:27.478Z,30.20
2022-09-07T15:20:55.613Z,30.30
2022-09-07T15:23:23.752Z,29.80
2022-09-07T15:25:54.118Z,29.00
2022-09-07T15:34:09.997Z,28.00
2022-09-07T15:36:40.337Z,27.80
2022-09-07T15:39:09.030Z,27.70
2022-09-07T15:41:37.179Z,27.50
2022-09-07T15:44:05.386Z,27.40
2022-09-07T15:46:37.046Z,27.20
2022-09-07T15:49:05.528Z,27.00
2022-09-07T15:54:21.864Z,26.80
2022-09-07T15:59:38.146Z,26.80
2022-09-07T16:03:04.516Z,26.80
2022-09-07T16:04:56.051Z,26.60
2022-09-07T16:08:24.688Z,26.50
2022-09-07T16:10:13.936Z,26.40
2022-09-07T16:15:30.482Z,26.10
2022-09-07T16:18:00.006Z,25.90
2022-09-07T16:20:32.097Z,25.80
2022-09-07T16:23:17.251Z,25.60
2022-09-07T16:25:57.552Z,25.30
2022-09-07T16:28:26.136Z,25.20
2022-09-07T16:30:54.443Z,25.10
2022-09-07T16:33:32.795Z,24.90
2022-09-07T16:36:07.528Z,24.90
2022-09-07T16:38:51.428Z,24.80
2022-09-07T16:41:22.766Z,24.60
2022-09-07T16:43:51.703Z,24.40
2022-09-07T16:46:21.668Z,24.30
2022-09-07T16:48:52.320Z,24.20
2022-09-07T16:51:24.774Z,24.00
2022-09-07T16:53:55.855Z,23.80
2022-09-07T16:56:26.960Z,23.70
2022-09-07T16:58:57.013Z,23.50
2022-09-07T17:01:27.446Z,23.40
2022-09-07T17:03:57.407Z,23.30
2022-09-07T17:06:27.249Z,22.90
2022-09-07T17:08:55.660Z,22.70
2022-09-07T17:11:25.649Z,22.50
2022-09-07T17:13:54.666Z,22.50
2022-09-07T17:16:25.440Z,22.40
2022-09-07T17:21:44.387Z,22.20
2022-09-07T17:24:14.304Z,22.10
2022-09-07T17:26:42.770Z,22.10
2022-09-07T17:29:13.059Z,22.00
2022-09-07T17:34:30.360Z,21.90
2022-09-07T17:37:01.223Z,21.80
2022-09-07T17:39:29.739Z,21.60
2022-09-07T17:41:58.202Z,21.50
2022-09-07T17:44:30.695Z,21.50
2022-09-07T17:47:00.112Z,21.40
2022-09-07T17:49:29.454Z,21.30
2022-09-07T17:52:01.151Z,21.30
2022-09-07T17:54:29.616Z,21.20
2022-09-07T17:56:57.732Z,21.10
2022-09-07T18:02:14.752Z,20.80
2022-09-07T18:04:43.051Z,20.90
2022-09-07T18:07:12.607Z,20.80
2022-09-07T18:09:40.752Z,20.80
2022-09-07T18:12:09.052Z,20.80
2022-09-07T18:14:37.195Z,20.80
2022-09-07T18:17:06.139Z,20.80
2022-09-07T18:19:34.366Z,20.70
2022-09-07T18:22:03.937Z,20.70
2022-09-07T18:24:36.873Z,20.70
2022-09-07T18:27:05.723Z,20.70
2022-09-07T18:29:34.498Z,20.70
2022-09-07T18:32:08.070Z,20.70
2022-09-07T18:34:37.505Z,20.70
2022-09-07T18:37:06.078Z,20.70
2022-09-07T18:39:36.001Z,20.70
2022-09-07T18:42:04.460Z,20.60
2022-09-07T18:47:28.084Z,20.40
2022-09-07T18:49:57.810Z,20.50
2022-09-07T18:55:16.330Z,20.40
2022-09-07T18:57:44.941Z,20.40
2022-09-07T19:00:14.547Z,20.40
2022-09-07T19:02:42.806Z,20.30
2022-09-07T19:08:03.364Z,20.30
2022-09-07T19:10:35.469Z,20.30
2022-09-07T19:13:03.616Z,20.30
2022-09-07T19:15:37.349Z,20.30
2022-09-07T19:18:06.972Z,20.30
2022-09-07T19:20:36.343Z,20.30
2022-09-07T19:23:04.476Z,20.20
2022-09-07T19:25:33.962Z,20.30
2022-09-07T19:28:02.160Z,20.20
2022-09-07T19:30:30.518Z,20.30
2022-09-07T19:33:02.112Z,20.20
2022-09-07T19:35:36.154Z,20.20
2022-09-07T19:38:04.287Z,20.10
2022-09-07T19:40:33.851Z,20.00
2022-09-07T19:43:01.935Z,20.00
2022-09-07T19:45:30.169Z,20.00
2022-09-07T19:47:58.555Z,20.00
2022-09-07T19:50:26.683Z,19.90
2022-09-07T19:52:54.823Z,20.00
2022-09-07T19:55:22.894Z,19.90
2022-09-07T19:57:52.539Z,19.90
2022-09-07T20:00:20.857Z,19.80
2022-09-07T20:02:50.093Z,19.80
2022-09-07T20:05:18.614Z,19.80
2022-09-07T20:07:47.079Z,19.80
2022-09-07T20:10:15.294Z,19.80
2022-09-07T20:12:43.418Z,19.90
2022-09-07T20:15:13.165Z,19.90
2022-09-07T20:17:41.338Z,19.80
2022-09-07T20:20:10.506Z,19.90
2022-09-07T20:22:38.648Z,19.80
2022-09-07T20:25:11.314Z,19.80
2022-09-07T20:27:41.185Z,19.80
2022-09-07T20:30:10.423Z,19.80
2022-09-07T20:32:40.282Z,19.80
2022-09-07T20:35:09.081Z,19.80
2022-09-07T20:37:37.361Z,19.80
2022-09-07T20:40:07.256Z,19.80
2022-09-07T20:42:35.508Z,19.70
2022-09-07T20:45:03.889Z,19.70
2022-09-07T20:47:32.130Z,19.80
2022-09-07T20:50:01.592Z,19.80
2022-09-07T20:52:29.669Z,19.80
2022-09-07T20:54:57.779Z,19.90
2022-09-07T20:57:25.904Z,20.00
2022-09-07T20:59:54.048Z,19.90
2022-09-07T21:02:22.243Z,20.00
2022-09-07T21:04:50.435Z,20.00
2022-09-07T21:07:19.862Z,19.90
2022-09-07T21:09:47.967Z,19.70
2022-09-07T21:12:16.296Z,19.50
2022-09-07T21:14:46.022Z,19.40
2022-09-07T21:17:14.157Z,19.50
2022-09-07T21:19:42.294Z,19.30
2022-09-07T21:22:10.487Z,19.10
2022-09-07T21:24:40.046Z,19.20
2022-09-07T21:27:08.193Z,19.30
2022-09-07T21:29:36.464Z,19.30
2022-09-07T21:32:07.217Z,19.40
2022-09-07T21:34:35.540Z,19.40
2022-09-07T21:37:04.134Z,19.30
2022-09-07T21:39:34.584Z,19.50
2022-09-07T21:42:07.731Z,19.50
2022-09-07T21:44:38.193Z,19.50
2022-09-07T21:47:09.254Z,19.30
2022-09-07T21:49:43.400Z,19.10
2022-09-07T21:52:12.522Z,19.10
2022-09-07T21:54:40.673Z,19.10
2022-09-07T21:57:10.146Z,19.10
2022-09-07T21:59:38.390Z,18.90
2022-09-07T22:02:06.656Z,18.80
2022-09-07T22:04:34.879Z,18.70
2022-09-07T22:07:03.094Z,18.60
2022-09-07T22:09:31.199Z,18.50
2022-09-07T22:12:00.016Z,18.60
2022-09-07T22:14:29.556Z,18.60
2022-09-07T22:16:57.652Z,18.60
2022-09-07T22:19:25.691Z,18.70
2022-09-07T22:21:54.334Z,18.60
2022-09-07T22:24:22.464Z,18.70
2022-09-07T22:26:50.858Z,18.60
2022-09-07T22:29:18.976Z,18.40
2022-09-07T22:31:48.461Z,18.50
2022-09-07T22:34:16.594Z,18.60
2022-09-07T22:36:45.889Z,18.60
2022-09-07T22:39:16.299Z,18.60
2022-09-07T22:41:45.496Z,18.70
2022-09-07T22:44:14.948Z,18.70
2022-09-07T22:46:44.769Z,18.70
2022-09-07T22:49:16.220Z,18.80
2022-09-07T22:51:45.012Z,18.80
2022-09-07T22:54:13.235Z,18.80
2022-09-07T22:56:41.392Z,18.60
2022-09-07T22:59:10.649Z,18.60
2022-09-07T23:01:39.069Z,18.40
2022-09-07T23:04:08.077Z,18.40
2022-09-07T23:06:39.679Z,18.40
2022-09-07T23:09:10.202Z,18.40
2022-09-07T23:11:38.343Z,18.30
2022-09-07T23:14:08.202Z,18.40
2022-09-07T23:16:36.369Z,18.40
2022-09-07T23:19:04.572Z,18.40
2022-09-07T23:21:32.836Z,18.40
2022-09-07T23:24:02.681Z,18.30
2022-09-07T23:26:32.257Z,18.30
2022-09-07T23:29:02.668Z,18.40
2022-09-07T23:31:33.119Z,18.40
2022-09-07T23:34:02.223Z,18.40
2022-09-07T23:36:31.040Z,18.40
2022-09-07T23:39:01.823Z,18.40
2022-09-07T23:41:29.930Z,18.40
2022-09-07T23:43:58.635Z,18.40
2022-09-07T23:46:26.970Z,18.50
2022-09-07T23:48:55.158Z,18.50
2022-09-07T23:51:24.758Z,18.50
2022-09-07T23:53:53.561Z,18.40
2022-09-07T23:56:24.473Z,18.40
2022-09-07T23:58:52.801Z,18.30
